createdAt,value
2018-04-12T00:02:26.486Z,15.23
2018-04-12T00:04:54.052Z,15.27
2018-04-12T00:07:21.653Z,15.77
2018-04-12T00:09:49.199Z,18.23
2018-04-12T00:12:16.814Z,19.17
2018-04-12T00:14:44.471Z,22.37
2018-04-12T00:17:12.095Z,20.47
2018-04-12T00:19:39.660Z,19.17
2018-04-12T00:22:07.247Z,21.03
2018-04-12T00:24:34.962Z,21.63
2018-04-12T00:27:03.387Z,19.43
2018-04-12T00:29:31.007Z,20.60
2018-04-12T00:31:58.563Z,21.53
2018-04-12T00:34:26.111Z,20.33
2018-04-12T00:36:53.740Z,21.13
2018-04-12T00:39:21.304Z,20.50
2018-04-12T00:41:48.867Z,19.87
2018-04-12T00:44:16.543Z,20.63
2018-04-12T00:46:44.119Z,18.70
2018-04-12T00:49:11.666Z,19.17
2018-04-12T00:51:39.239Z,18.93
2018-04-12T00:54:07.552Z,16.97
2018-04-12T00:56:35.887Z,16.20
2018-04-12T00:59:03.463Z,17.40
2018-04-12T01:01:31.048Z,17.63
2018-04-12T01:03:58.608Z,16.43
2018-04-12T01:06:26.170Z,16.87
2018-04-12T01:08:53.831Z,16.17
2018-04-12T01:11:21.390Z,17.23
2018-04-12T01:13:49.024Z,17.37
2018-04-12T01:16:16.588Z,16.77
2018-04-12T01:18:44.167Z,16.97
2018-04-12T01:21:11.786Z,18.37
2018-04-12T01:23:39.350Z,19.93
2018-04-12T01:26:06.930Z,22.47
2018-04-12T01:28:34.544Z,24.53
2018-04-12T01:31:02.126Z,22.63
2018-04-12T01:33:29.690Z,17.67
2018-04-12T01:35:57.314Z,15.73
2018-04-12T01:38:24.874Z,15.97
2018-04-12T01:40:53.195Z,17.03
2018-04-12T01:43:20.788Z,17.77
2018-04-12T01:45:48.381Z,17.50
2018-04-12T01:48:16.785Z,18.33
2018-04-12T01:50:44.345Z,16.70
2018-04-12T01:53:11.937Z,15.13
2018-04-12T01:55:39.495Z,14.63
2018-04-12T01:58:07.041Z,14.50
2018-04-12T02:00:34.633Z,14.07
2018-04-12T02:03:02.852Z,15.90
2018-04-12T02:05:30.432Z,17.80
2018-04-12T02:07:57.993Z,18.00
2018-04-12T02:10:25.574Z,17.37
2018-04-12T02:12:53.159Z,18.00
2018-04-12T02:15:20.753Z,18.23
2018-04-12T02:17:48.343Z,17.47
2018-04-12T02:20:16.694Z,17.53
2018-04-12T02:22:44.308Z,18.17
2018-04-12T02:25:11.883Z,18.33
2018-04-12T02:27:39.440Z,18.17
2018-04-12T02:30:07.058Z,17.97
2018-04-12T02:32:34.629Z,18.83
2018-04-12T02:35:02.224Z,18.77
2018-04-12T02:37:29.786Z,18.40
2018-04-12T02:39:58.151Z,18.83
2018-04-12T02:42:25.710Z,18.90
2018-04-12T02:44:53.335Z,19.90
2018-04-12T02:47:20.897Z,18.40
2018-04-12T02:49:48.449Z,16.40
2018-04-12T02:52:16.025Z,17.23
2018-04-12T02:54:43.576Z,16.07
2018-04-12T02:57:11.158Z,15.77
2018-04-12T02:59:38.716Z,15.77
2018-04-12T03:02:06.312Z,15.87
2018-04-12T03:04:34.670Z,16.40
2018-04-12T03:07:02.228Z,17.57
2018-04-12T03:09:29.842Z,16.10
2018-04-12T03:11:57.404Z,21.60
2018-04-12T03:14:24.976Z,22.50
2018-04-12T03:16:52.571Z,20.87
2018-04-12T03:19:20.177Z,18.67
2018-04-12T03:21:47.733Z,18.87
2018-04-12T03:24:15.274Z,19.87
2018-04-12T03:26:43.722Z,19.03
2018-04-12T03:29:11.276Z,18.17
2018-04-12T03:31:38.866Z,17.73
2018-04-12T03:34:06.419Z,17.30
2018-04-12T03:36:34.126Z,18.13
2018-04-12T03:39:02.433Z,18.23
2018-04-12T03:41:29.993Z,18.23
2018-04-12T03:43:57.601Z,19.17
2018-04-12T03:46:25.921Z,19.13
2018-04-12T03:48:53.465Z,20.60
2018-04-12T03:51:21.104Z,18.20
2018-04-12T03:53:49.441Z,18.90
2018-04-12T03:56:17.029Z,19.07
2018-04-12T03:58:44.586Z,19.17
2018-04-12T04:01:12.961Z,18.47
2018-04-12T04:03:40.551Z,19.67
2018-04-12T04:06:08.911Z,19.57
2018-04-12T04:08:36.462Z,19.70
2018-04-12T04:11:04.080Z,19.13
2018-04-12T04:13:31.636Z,19.50
2018-04-12T04:16:11.013Z,20.30
2018-04-12T04:18:50.253Z,20.03
2018-04-12T04:21:17.887Z,20.33
2018-04-12T04:23:45.458Z,20.50
2018-04-12T04:26:13.011Z,21.17
2018-04-12T04:28:40.566Z,19.83
2018-04-12T04:31:08.150Z,19.90
2018-04-12T04:33:35.753Z,20.57
2018-04-12T04:36:03.306Z,20.83
2018-04-12T04:38:30.963Z,20.27
2018-04-12T04:40:59.428Z,19.73
2018-04-12T04:43:26.992Z,19.53
2018-04-12T04:45:55.314Z,18.87
2018-04-12T04:48:22.982Z,20.13
2018-04-12T04:50:50.537Z,19.40
2018-04-12T04:53:18.103Z,21.70
2018-04-12T04:55:46.468Z,21.27
2018-04-12T04:58:14.039Z,20.83
2018-04-12T05:00:41.652Z,20.23
2018-04-12T05:03:09.211Z,21.37
2018-04-12T05:05:36.769Z,21.33
2018-04-12T05:08:04.357Z,20.63
2018-04-12T05:10:31.924Z,20.83
2018-04-12T05:12:59.469Z,21.70
2018-04-12T05:15:27.056Z,22.07
2018-04-12T05:17:54.631Z,21.10
2018-04-12T05:20:22.209Z,22.80
2018-04-12T05:22:49.890Z,22.13
2018-04-12T05:25:17.458Z,21.57
2018-04-12T05:27:45.057Z,22.37
2018-04-12T05:30:12.650Z,22.33
2018-04-12T05:32:40.235Z,22.10
2018-04-12T05:35:07.833Z,22.03
2018-04-12T05:37:35.427Z,23.10
2018-04-12T05:40:02.981Z,22.40
2018-04-12T05:42:30.538Z,21.17
2018-04-12T05:44:58.256Z,23.00
2018-04-12T05:47:25.803Z,22.60
2018-04-12T05:49:53.361Z,22.00
2018-04-12T05:52:20.943Z,21.47
2018-04-12T05:54:49.309Z,21.57
2018-04-12T05:57:16.861Z,23.03
2018-04-12T05:59:44.467Z,22.90
2018-04-12T06:02:12.099Z,22.77
2018-04-12T06:04:40.409Z,22.60
2018-04-12T06:07:07.952Z,22.33
2018-04-12T06:09:35.529Z,23.33
2018-04-12T06:12:03.128Z,23.27
2018-04-12T06:14:30.669Z,24.03
2018-04-12T06:16:58.240Z,22.90
2018-04-12T06:19:25.840Z,22.57
2018-04-12T06:21:54.185Z,22.33
2018-04-12T06:24:21.734Z,22.67
2018-04-12T06:26:49.313Z,23.53
2018-04-12T06:29:16.869Z,21.97
2018-04-12T06:31:44.454Z,22.50
2018-04-12T06:34:12.801Z,24.87
2018-04-12T06:36:40.358Z,23.83
2018-04-12T06:39:07.976Z,24.73
2018-04-12T06:41:35.535Z,24.63
2018-04-12T06:44:03.099Z,23.30
2018-04-12T06:46:30.699Z,24.27
2018-04-12T06:48:58.256Z,25.10
2018-04-12T06:51:26.179Z,25.50
2018-04-12T06:53:53.791Z,24.23
2018-04-12T06:56:21.352Z,24.83
2018-04-12T06:58:48.947Z,24.60
2018-04-12T07:01:16.507Z,24.63
2018-04-12T07:03:44.835Z,24.30
2018-04-12T07:06:12.459Z,25.07
2018-04-12T07:08:40.022Z,22.77
2018-04-12T07:11:08.334Z,22.03
2018-04-12T07:13:35.953Z,20.30
2018-04-12T07:16:04.286Z,20.63
2018-04-12T07:18:31.833Z,20.63
2018-04-12T07:20:59.442Z,21.57
2018-04-12T07:23:27.009Z,20.23
2018-04-12T07:25:55.336Z,18.20
2018-04-12T07:28:22.942Z,19.63
2018-04-12T07:30:51.261Z,18.70
2018-04-12T07:33:18.843Z,17.67
2018-04-12T07:35:46.395Z,16.73
2018-04-12T07:38:13.995Z,16.10
2018-04-12T07:40:41.605Z,14.37
2018-04-12T07:43:09.159Z,14.07
2018-04-12T07:45:36.726Z,14.93
2018-04-12T07:48:04.369Z,16.40
2018-04-12T07:50:31.929Z,14.80
2018-04-12T07:52:59.527Z,13.30
2018-04-12T07:55:27.105Z,15.27
2018-04-12T07:57:54.693Z,14.97
2018-04-12T08:00:23.007Z,14.23
2018-04-12T08:02:50.594Z,13.33
2018-04-12T08:05:18.194Z,12.83
2018-04-12T08:07:45.760Z,12.37
2018-04-12T08:10:13.358Z,11.53
2018-04-12T08:12:40.935Z,11.73
2018-04-12T08:15:08.491Z,10.37
2018-04-12T08:17:36.043Z,10.83
2018-04-12T08:20:03.637Z,12.13
2018-04-12T08:22:31.194Z,11.07
2018-04-12T08:24:58.775Z,9.33
2018-04-12T08:27:27.085Z,9.30
2018-04-12T08:29:54.690Z,9.17
2018-04-12T08:32:22.237Z,6.57
2018-04-12T08:34:49.778Z,7.77
2018-04-12T08:37:17.367Z,8.73
2018-04-12T08:39:44.908Z,9.10
2018-04-12T08:42:12.523Z,9.73
2018-04-12T08:44:40.071Z,9.00
2018-04-12T08:47:08.410Z,9.90
2018-04-12T08:49:36.007Z,10.27
2018-04-12T08:52:03.619Z,11.33
2018-04-12T08:54:31.231Z,10.07
2018-04-12T08:56:59.573Z,9.53
2018-04-12T08:59:27.174Z,9.73
2018-04-12T09:01:55.538Z,8.73
2018-04-12T09:04:23.234Z,8.37
2018-04-12T09:06:50.830Z,9.80
2018-04-12T09:09:18.491Z,9.07
2018-04-12T09:11:46.046Z,7.70
2018-04-12T09:14:13.662Z,7.97
2018-04-12T09:16:41.232Z,8.53
2018-04-12T09:19:08.842Z,8.03
2018-04-12T09:21:37.164Z,7.70
2018-04-12T09:24:05.489Z,7.37
2018-04-12T09:26:33.213Z,6.70
2018-04-12T09:29:00.768Z,6.00
2018-04-12T09:31:28.327Z,5.90
2018-04-12T09:33:55.931Z,5.63
2018-04-12T09:36:23.480Z,5.50
2018-04-12T09:38:51.090Z,5.40
2018-04-12T09:41:19.133Z,5.00
2018-04-12T09:43:46.671Z,4.70
2018-04-12T09:46:14.301Z,4.40
2018-04-12T09:48:41.832Z,4.13
2018-04-12T09:51:09.390Z,4.50
2018-04-12T09:53:36.992Z,4.97
2018-04-12T09:56:04.550Z,4.93
2018-04-12T09:58:32.103Z,5.93
2018-04-12T10:01:00.467Z,5.70
2018-04-12T10:03:28.819Z,6.07
2018-04-12T10:06:02.033Z,5.63
2018-04-12T10:08:29.630Z,6.73
2018-04-12T10:10:57.240Z,6.37
2018-04-12T10:13:24.873Z,6.40
2018-04-12T10:15:52.434Z,6.57
2018-04-12T10:18:20.005Z,7.10
2018-04-12T10:20:47.614Z,5.90
2018-04-12T10:23:15.239Z,6.10
2018-04-12T10:25:42.790Z,6.07
2018-04-12T10:28:10.382Z,5.77
2018-04-12T10:30:37.961Z,6.37
2018-04-12T10:33:06.302Z,5.10
2018-04-12T10:35:33.915Z,5.27
2018-04-12T10:38:01.490Z,6.03
2018-04-12T10:40:29.033Z,6.07
2018-04-12T10:42:57.283Z,5.83
2018-04-12T10:45:25.666Z,6.00
2018-04-12T10:47:54.005Z,6.00
2018-04-12T10:50:22.341Z,5.93
2018-04-12T10:52:49.956Z,5.40
2018-04-12T10:55:17.519Z,5.00
2018-04-12T10:57:45.107Z,5.60
2018-04-12T11:00:12.686Z,5.80
2018-04-12T11:02:40.294Z,5.40
2018-04-12T11:05:07.866Z,5.70
2018-04-12T11:07:36.251Z,5.97
2018-04-12T11:10:03.804Z,5.50
2018-04-12T11:12:32.193Z,5.47
2018-04-12T11:14:59.794Z,5.70
2018-04-12T11:17:27.433Z,6.10
2018-04-12T11:19:55.773Z,5.83
2018-04-12T11:22:23.358Z,5.53
2018-04-12T11:24:50.947Z,5.37
2018-04-12T11:27:18.545Z,5.67
2018-04-12T11:29:46.114Z,5.77
2018-04-12T11:32:13.713Z,5.50
2018-04-12T11:34:41.340Z,4.70
2018-04-12T11:37:08.973Z,4.93
2018-04-12T11:39:36.551Z,5.80
2018-04-12T11:42:04.102Z,4.83
2018-04-12T11:44:31.898Z,4.63
2018-04-12T11:46:59.503Z,4.67
2018-04-12T11:49:27.062Z,4.83
2018-04-12T11:51:54.625Z,4.53
2018-04-12T11:54:22.224Z,4.37
2018-04-12T11:56:49.809Z,4.43
2018-04-12T11:59:17.436Z,5.03
2018-04-12T12:01:45.045Z,5.13
2018-04-12T12:04:12.577Z,4.53
2018-04-12T12:06:40.150Z,4.40
2018-04-12T12:09:07.706Z,4.00
2018-04-12T12:11:35.294Z,4.53
2018-04-12T12:14:03.621Z,4.27
2018-04-12T12:16:31.242Z,4.63
2018-04-12T12:18:58.787Z,4.30
2018-04-12T12:21:27.100Z,4.40
2018-04-12T12:23:54.725Z,4.17
2018-04-12T12:26:23.107Z,4.10
2018-04-12T12:28:51.444Z,4.10
2018-04-12T12:31:19.000Z,4.13
2018-04-12T12:33:46.619Z,4.97
2018-04-12T12:36:14.206Z,4.13
2018-04-12T12:38:41.756Z,4.37
2018-04-12T12:41:09.365Z,4.33
2018-04-12T12:43:36.913Z,4.23
2018-04-12T12:46:04.458Z,4.10
2018-04-12T12:48:32.030Z,4.10
2018-04-12T12:50:59.568Z,4.50
2018-04-12T12:53:27.176Z,4.23
2018-04-12T12:55:54.785Z,4.33
2018-04-12T12:58:22.314Z,4.57
2018-04-12T13:00:50.670Z,3.97
2018-04-12T13:03:18.226Z,4.77
2018-04-12T13:05:45.784Z,3.67
2018-04-12T13:08:13.394Z,4.80
2018-04-12T13:10:40.949Z,4.50
2018-04-12T13:13:08.504Z,4.30
2018-04-12T13:15:36.123Z,4.97
2018-04-12T13:18:03.667Z,4.53
2018-04-12T13:20:31.255Z,4.47
2018-04-12T13:22:58.973Z,4.60
2018-04-12T13:25:26.699Z,4.70
2018-04-12T13:27:54.245Z,4.93
2018-04-12T13:30:21.856Z,5.03
2018-04-12T13:32:49.399Z,3.77
2018-04-12T13:35:16.952Z,4.17
2018-04-12T13:37:45.302Z,4.53
2018-04-12T13:40:12.838Z,4.50
2018-04-12T13:42:40.391Z,4.93
2018-04-12T13:45:07.954Z,4.50
2018-04-12T13:47:35.537Z,4.90
2018-04-12T13:50:03.206Z,4.77
2018-04-12T13:52:30.755Z,4.63
2018-04-12T13:54:58.305Z,4.70
2018-04-12T13:57:25.849Z,5.20
2018-04-12T13:59:54.242Z,4.93
2018-04-12T14:02:21.787Z,4.87
2018-04-12T14:04:49.334Z,4.60
2018-04-12T14:07:16.950Z,5.10
2018-04-12T14:09:44.718Z,5.60
2018-04-12T14:12:13.055Z,5.03
2018-04-12T14:14:40.654Z,5.10
2018-04-12T14:17:08.263Z,4.93
2018-04-12T14:19:35.799Z,4.97
2018-04-12T14:22:03.426Z,4.60
2018-04-12T14:24:30.982Z,5.13
2018-04-12T14:26:58.517Z,5.40
2018-04-12T14:29:26.121Z,5.60
2018-04-12T14:31:54.443Z,5.00
2018-04-12T14:34:22.002Z,5.30
2018-04-12T14:36:49.575Z,5.70
2018-04-12T14:39:17.153Z,5.83
2018-04-12T14:41:44.735Z,5.47
2018-04-12T14:44:13.122Z,5.33
2018-04-12T14:46:41.449Z,5.40
2018-04-12T14:49:09.027Z,4.97
2018-04-12T14:51:36.616Z,4.93
2018-04-12T14:54:04.183Z,5.07
2018-04-12T14:56:32.555Z,5.63
2018-04-12T14:59:00.886Z,5.10
2018-04-12T15:01:28.463Z,5.97
2018-04-12T15:03:56.151Z,5.00
2018-04-12T15:06:23.732Z,5.70
2018-04-12T15:08:52.104Z,5.03
2018-04-12T15:11:19.885Z,4.30
2018-04-12T15:13:48.457Z,5.10
2018-04-12T15:16:18.028Z,4.13
2018-04-12T15:18:48.016Z,4.70
2018-04-12T15:21:16.500Z,4.57
2018-04-12T15:23:44.090Z,4.83
2018-04-12T15:26:11.713Z,4.53
2018-04-12T15:28:39.288Z,5.07
2018-04-12T15:31:06.951Z,4.80
2018-04-12T15:33:34.546Z,4.40
2018-04-12T15:36:02.869Z,4.67
2018-04-12T15:38:30.467Z,4.93
2018-04-12T15:40:58.064Z,4.40
2018-04-12T15:43:26.448Z,4.97
2018-04-12T15:45:54.031Z,5.13
2018-04-12T15:48:21.610Z,4.93
2018-04-12T15:50:49.229Z,5.17
2018-04-12T15:53:17.745Z,5.00
2018-04-12T15:55:45.379Z,5.00
2018-04-12T15:58:13.208Z,4.90
2018-04-12T16:00:40.912Z,5.97
2018-04-12T16:03:08.486Z,5.37
2018-04-12T16:05:36.366Z,5.63
2018-04-12T16:08:04.027Z,5.67
2018-04-12T16:10:31.608Z,5.50
2018-04-12T16:12:59.246Z,5.43
2018-04-12T16:15:26.872Z,5.33
2018-04-12T16:17:55.262Z,5.37
2018-04-12T16:20:23.051Z,5.70
2018-04-12T16:22:50.640Z,4.87
2018-04-12T16:25:18.251Z,5.07
2018-04-12T16:27:46.437Z,5.17
2018-04-12T16:30:14.004Z,5.23
2018-04-12T16:32:41.647Z,5.70
2018-04-12T16:35:09.284Z,5.73
2018-04-12T16:37:36.922Z,5.37
2018-04-12T16:40:04.516Z,5.37
2018-04-12T16:42:33.071Z,5.50
2018-04-12T16:45:00.717Z,5.17
2018-04-12T16:47:28.331Z,4.93
2018-04-12T16:49:56.707Z,6.00
2018-04-12T16:52:24.298Z,5.17
2018-04-12T16:54:51.991Z,5.60
2018-04-12T16:57:19.605Z,5.47
2018-04-12T16:59:47.222Z,5.63
2018-04-12T17:02:14.812Z,5.80
2018-04-12T17:04:42.390Z,6.03
2018-04-12T17:07:10.747Z,6.20
2018-04-12T17:09:38.328Z,5.90
2018-04-12T17:12:05.917Z,5.60
2018-04-12T17:14:33.465Z,5.50
2018-04-12T17:17:01.067Z,5.80
2018-04-12T17:19:28.650Z,5.60
2018-04-12T17:21:56.276Z,5.80
2018-04-12T17:24:23.860Z,6.53
2018-04-12T17:26:51.622Z,5.90
2018-04-12T17:29:19.359Z,6.47
2018-04-12T17:31:48.551Z,7.60
2018-04-12T17:34:16.118Z,7.63
2018-04-12T17:36:43.705Z,8.03
2018-04-12T17:39:11.263Z,8.57
2018-04-12T17:41:38.847Z,9.37
2018-04-12T17:44:06.474Z,9.57
2018-04-12T17:46:34.044Z,8.83
2018-04-12T17:49:01.597Z,9.60
2018-04-12T17:51:29.199Z,10.40
2018-04-12T17:53:57.562Z,9.27
2018-04-12T17:56:25.163Z,10.07
2018-04-12T17:58:52.725Z,10.33
2018-04-12T18:01:20.288Z,10.87
2018-04-12T18:03:48.019Z,11.20
2018-04-12T18:06:15.569Z,11.33
2018-04-12T18:08:43.149Z,11.27
2018-04-12T18:11:11.506Z,11.17
2018-04-12T18:13:39.087Z,11.37
2018-04-12T18:16:14.050Z,11.30
2018-04-12T18:18:49.327Z,11.10
2018-04-12T18:21:26.538Z,11.47
2018-04-12T18:24:02.562Z,11.13
2018-04-12T18:26:40.682Z,11.00
2018-04-12T18:29:15.408Z,10.60
2018-04-12T18:31:50.165Z,10.73
2018-04-12T18:34:26.352Z,10.77
2018-04-12T18:37:00.790Z,11.33
2018-04-12T18:39:35.887Z,11.70
2018-04-12T18:42:12.493Z,11.43
2018-04-12T18:44:48.044Z,10.60
2018-04-12T18:47:21.860Z,10.53
2018-04-12T18:52:55.728Z,11.30
2018-04-12T18:55:26.071Z,10.57
2018-04-12T18:57:54.379Z,11.03
2018-04-12T19:00:22.583Z,10.73
2018-04-12T19:02:50.376Z,11.17
2018-04-12T19:05:17.947Z,11.40
2018-04-12T19:10:38.679Z,11.30
2018-04-12T19:13:07.025Z,11.23
2018-04-12T19:15:34.814Z,11.50
2018-04-12T19:18:03.147Z,11.80
2018-04-12T19:20:31.466Z,12.23
2018-04-12T19:22:59.048Z,12.30
2018-04-12T19:25:26.639Z,12.33
2018-04-12T19:27:54.276Z,12.00
2018-04-12T19:30:21.976Z,12.80
2018-04-12T19:32:49.565Z,12.03
2018-04-12T19:35:18.067Z,12.47
2018-04-12T19:37:45.661Z,12.83
2018-04-12T19:40:13.317Z,12.83
2018-04-12T19:42:40.921Z,12.37
2018-04-12T19:45:08.487Z,13.73
2018-04-12T19:47:36.113Z,13.10
2018-04-12T19:50:03.735Z,13.27
2018-04-12T19:52:31.331Z,14.27
2018-04-12T19:54:58.961Z,14.17
2018-04-12T19:57:26.544Z,14.93
2018-04-12T19:59:54.186Z,15.63
2018-04-12T20:02:22.335Z,14.30
2018-04-12T20:04:50.678Z,15.60
2018-04-12T20:07:18.334Z,16.20
2018-04-12T20:09:46.424Z,15.10
2018-04-12T20:12:14.019Z,16.13
2018-04-12T20:14:41.657Z,16.47
2018-04-12T20:17:09.997Z,16.40
2018-04-12T20:19:37.591Z,16.27
2018-04-12T20:22:06.046Z,16.97
2018-04-12T20:24:33.648Z,16.50
2018-04-12T20:27:02.329Z,16.40
2018-04-12T20:29:30.677Z,15.97
2018-04-12T20:31:58.245Z,16.63
2018-04-12T20:34:26.605Z,15.03
2018-04-12T20:36:54.279Z,15.87
2018-04-12T20:39:21.873Z,16.47
2018-04-12T20:41:49.768Z,15.80
2018-04-12T20:44:17.404Z,17.07
2018-04-12T20:46:44.976Z,16.73
2018-04-12T20:49:12.587Z,16.30
2018-04-12T20:51:40.269Z,15.97
2018-04-12T20:54:08.608Z,15.53
2018-04-12T20:56:36.232Z,15.07
2018-04-12T20:59:03.934Z,14.70
2018-04-12T21:01:31.841Z,14.90
2018-04-12T21:04:00.215Z,15.07
2018-04-12T21:06:28.561Z,14.93
2018-04-12T21:08:56.166Z,14.20
2018-04-12T21:11:23.798Z,14.00
2018-04-12T21:13:51.471Z,14.37
2018-04-12T21:16:20.096Z,14.00
2018-04-12T21:18:47.675Z,14.23
2018-04-12T21:21:15.295Z,14.37
2018-04-12T21:23:42.881Z,14.30
2018-04-12T21:26:10.793Z,14.37
2018-04-12T21:28:38.428Z,14.87
2018-04-12T21:31:06.065Z,15.33
2018-04-12T21:33:34.212Z,14.93
2018-04-12T21:36:01.897Z,14.33
2018-04-12T21:38:29.475Z,15.00
2018-04-12T21:40:57.145Z,15.27
2018-04-12T21:43:24.739Z,14.90
2018-04-12T21:45:53.379Z,15.23
2018-04-12T21:48:20.994Z,15.33
2018-04-12T21:50:48.604Z,15.10
2018-04-12T21:53:16.262Z,15.83
2018-04-12T21:55:43.872Z,16.10
2018-04-12T21:58:12.272Z,16.20
2018-04-12T22:00:39.936Z,15.93
2018-04-12T22:03:07.548Z,16.67
2018-04-12T22:05:35.299Z,17.07
2018-04-12T22:08:02.888Z,16.60
2018-04-12T22:10:31.314Z,17.33
2018-04-12T22:12:58.912Z,17.03
2018-04-12T22:15:27.014Z,18.00
2018-04-12T22:17:54.631Z,17.40
2018-04-12T22:20:22.225Z,17.77
2018-04-12T22:22:50.270Z,17.50
2018-04-12T22:25:18.346Z,17.27
2018-04-12T22:27:47.286Z,17.97
2018-04-12T22:30:15.046Z,17.20
2018-04-12T22:32:42.625Z,18.57
2018-04-12T22:35:10.237Z,19.90
2018-04-12T22:37:38.667Z,20.60
2018-04-12T22:40:06.610Z,19.23
2018-04-12T22:42:34.195Z,19.30
2018-04-12T22:45:01.764Z,18.33
2018-04-12T22:47:29.628Z,18.87
2018-04-12T22:49:57.237Z,18.93
2018-04-12T22:52:24.869Z,18.87
2018-04-12T22:54:52.817Z,18.57
2018-04-12T22:57:20.370Z,18.30
2018-04-12T22:59:48.933Z,19.47
2018-04-12T23:02:16.525Z,18.27
2018-04-12T23:04:44.664Z,19.30
2018-04-12T23:07:12.311Z,19.60
2018-04-12T23:09:39.946Z,19.33
2018-04-12T23:12:08.299Z,19.10
2018-04-12T23:14:35.888Z,18.53
2018-04-12T23:17:04.257Z,20.40
2018-04-12T23:19:32.689Z,18.00
2018-04-12T23:22:00.280Z,19.10
2018-04-12T23:24:27.874Z,19.57
2018-04-12T23:26:56.373Z,18.67
2018-04-12T23:29:24.139Z,19.50
2018-04-12T23:31:52.008Z,19.00
2018-04-12T23:34:19.598Z,20.07
2018-04-12T23:36:47.168Z,20.10
2018-04-12T23:39:14.865Z,19.60
2018-04-12T23:41:43.198Z,21.60
2018-04-12T23:44:11.152Z,20.00
2018-04-12T23:46:38.712Z,20.70
2018-04-12T23:49:06.702Z,20.20
2018-04-12T23:51:34.313Z,20.43
2018-04-12T23:54:02.098Z,20.87
2018-04-12T23:56:29.814Z,20.83
2018-04-12T23:58:58.174Z,21.87
